sensor_id;sensor_type;location;lat;lon;timestamp;pressure;altitude;pressure_sealevel;temperature;humidity
50093;BME280;35974;47.752;10.290;2024-03-02T00:01:34;92726.56;;;3.23;100.00
50093;BME280;35974;47.752;10.290;2024-03-02T00:04:04;92677.72;;;2.85;100.00
50093;BME280;35974;47.752;10.290;2024-03-02T00:06:33;92714.50;;;3.09;100.00
50093;BME280;35974;47.752;10.290;2024-03-02T00:09:00;92718.50;;;3.11;100.00
50093;BME280;35974;47.752;10.290;2024-03-02T00:11:35;92676.53;;;2.81;100.00
50093;BME280;35974;47.752;10.290;2024-03-02T00:14:02;92679.34;;;2.86;100.00
50093;BME280;35974;47.752;10.290;2024-03-02T00:16:30;92713.88;;;3.07;100.00
50093;BME280;35974;47.752;10.290;2024-03-02T00:19:01;92698.50;;;2.99;100.00
50093;BME280;35974;47.752;10.290;2024-03-02T00:21:29;92686.97;;;2.95;100.00
50093;BME280;35974;47.752;10.290;2024-03-02T00:23:56;92719.88;;;3.07;100.00
50093;BME280;35974;47.752;10.290;2024-03-02T00:26:23;92666.50;;;2.71;100.00
50093;BME280;35974;47.752;10.290;2024-03-02T00:28:53;92702.94;;;3.05;100.00
50093;BME280;35974;47.752;10.290;2024-03-02T00:31:20;92691.75;;;2.98;100.00
50093;BME280;35974;47.752;10.290;2024-03-02T00:33:48;92712.16;;;3.14;100.00
50093;BME280;35974;47.752;10.290;2024-03-02T00:36:16;92663.84;;;2.86;100.00
50093;BME280;35974;47.752;10.290;2024-03-02T00:38:47;92693.00;;;3.08;100.00
50093;BME280;35974;47.752;10.290;2024-03-02T00:41:19;92699.00;;;3.09;100.00
50093;BME280;35974;47.752;10.290;2024-03-02T00:44:02;92699.84;;;3.16;100.00
50093;BME280;35974;47.752;10.290;2024-03-02T00:46:38;92695.09;;;3.20;100.00
50093;BME280;35974;47.752;10.290;2024-03-02T00:51:37;92727.41;;;3.30;100.00
50093;BME280;35974;47.752;10.290;2024-03-02T00:54:07;92712.63;;;3.24;100.00
50093;BME280;35974;47.752;10.290;2024-03-02T00:56:35;92711.06;;;3.23;100.00
50093;BME280;35974;47.752;10.290;2024-03-02T00:59:02;92706.13;;;3.28;100.00
50093;BME280;35974;47.752;10.290;2024-03-02T01:01:37;92699.09;;;3.22;100.00
50093;BME280;35974;47.752;10.290;2024-03-02T01:04:04;92686.31;;;3.14;100.00
50093;BME280;35974;47.752;10.290;2024-03-02T01:06:31;92662.69;;;2.96;100.00
50093;BME280;35974;47.752;10.290;2024-03-02T01:08:57;92683.50;;;3.09;100.00
50093;BME280;35974;47.752;10.290;2024-03-02T01:11:24;92693.94;;;3.22;100.00
50093;BME280;35974;47.752;10.290;2024-03-02T01:13:51;92697.13;;;3.24;100.00
50093;BME280;35974;47.752;10.290;2024-03-02T01:16:19;92719.28;;;3.34;100.00
50093;BME280;35974;47.752;10.290;2024-03-02T01:18:45;92648.81;;;2.97;100.00
50093;BME280;35974;47.752;10.290;2024-03-02T01:21:12;92673.63;;;3.19;100.00
50093;BME280;35974;47.752;10.290;2024-03-02T01:23:39;92717.06;;;3.30;100.00
50093;BME280;35974;47.752;10.290;2024-03-02T01:26:05;92651.16;;;2.91;100.00
50093;BME280;35974;47.752;10.290;2024-03-02T01:28:33;92697.03;;;3.11;100.00
50093;BME280;35974;47.752;10.290;2024-03-02T01:31:00;92647.47;;;2.79;100.00
50093;BME280;35974;47.752;10.290;2024-03-02T01:33:27;92673.16;;;2.87;100.00
50093;BME280;35974;47.752;10.290;2024-03-02T01:35:54;92668.28;;;2.92;100.00
50093;BME280;35974;47.752;10.290;2024-03-02T01:38:20;92720.56;;;3.23;100.00
50093;BME280;35974;47.752;10.290;2024-03-02T01:40:49;92712.78;;;3.16;100.00
50093;BME280;35974;47.752;10.290;2024-03-02T01:43:15;92702.19;;;3.11;100.00
50093;BME280;35974;47.752;10.290;2024-03-02T01:45:42;92674.28;;;3.00;100.00
50093;BME280;35974;47.752;10.290;2024-03-02T01:48:11;92692.69;;;3.18;100.00
50093;BME280;35974;47.752;10.290;2024-03-02T01:50:37;92679.16;;;3.16;100.00
50093;BME280;35974;47.752;10.290;2024-03-02T01:53:04;92671.19;;;3.11;100.00
50093;BME280;35974;47.752;10.290;2024-03-02T01:55:30;92711.50;;;3.34;100.00
50093;BME280;35974;47.752;10.290;2024-03-02T01:58:05;92692.47;;;3.13;100.00
50093;BME280;35974;47.752;10.290;2024-03-02T02:00:33;92671.56;;;3.08;100.00
50093;BME280;35974;47.752;10.290;2024-03-02T02:02:59;92659.13;;;2.97;100.00
50093;BME280;35974;47.752;10.290;2024-03-02T02:05:26;92635.19;;;2.81;100.00
50093;BME280;35974;47.752;10.290;2024-03-02T02:07:53;92674.75;;;3.10;100.00
50093;BME280;35974;47.752;10.290;2024-03-02T02:10:20;92716.31;;;3.37;100.00
50093;BME280;35974;47.752;10.290;2024-03-02T02:12:47;92701.53;;;3.30;100.00
50093;BME280;35974;47.752;10.290;2024-03-02T02:15:26;92674.75;;;3.10;100.00
50093;BME280;35974;47.752;10.290;2024-03-02T02:17:54;92593.59;;;2.48;100.00
50093;BME280;35974;47.752;10.290;2024-03-02T02:20:22;92693.06;;;3.15;100.00
50093;BME280;35974;47.752;10.290;2024-03-02T02:25:24;92691.13;;;3.17;100.00
50093;BME280;35974;47.752;10.290;2024-03-02T02:27:52;92671.19;;;3.11;100.00
50093;BME280;35974;47.752;10.290;2024-03-02T02:30:21;92668.00;;;3.09;100.00
50093;BME280;35974;47.752;10.290;2024-03-02T02:32:48;92675.59;;;3.17;100.00
50093;BME280;35974;47.752;10.290;2024-03-02T02:35:15;92650.88;;;3.08;100.00
50093;BME280;35974;47.752;10.290;2024-03-02T02:37:43;92705.59;;;3.40;100.00
50093;BME280;35974;47.752;10.290;2024-03-02T02:40:10;92632.09;;;2.92;100.00
50093;BME280;35974;47.752;10.290;2024-03-02T02:42:39;92672.47;;;3.22;100.00
50093;BME280;35974;47.752;10.290;2024-03-02T02:45:06;92647.31;;;3.09;100.00
50093;BME280;35974;47.752;10.290;2024-03-02T02:47:33;92665.50;;;3.22;100.00
50093;BME280;35974;47.752;10.290;2024-03-02T02:50:06;92706.81;;;3.44;100.00
50093;BME280;35974;47.752;10.290;2024-03-02T02:52:39;92703.25;;;3.45;100.00
50093;BME280;35974;47.752;10.290;2024-03-02T02:55:08;92697.66;;;3.41;100.00
50093;BME280;35974;47.752;10.290;2024-03-02T02:57:37;92667.84;;;3.17;100.00
50093;BME280;35974;47.752;10.290;2024-03-02T03:00:11;92628.88;;;2.90;100.00
50093;BME280;35974;47.752;10.290;2024-03-02T03:02:45;92698.03;;;3.38;100.00
50093;BME280;35974;47.752;10.290;2024-03-02T03:05:13;92721.56;;;3.50;100.00
50093;BME280;35974;47.752;10.290;2024-03-02T03:07:41;92688.66;;;3.37;100.00
50093;BME280;35974;47.752;10.290;2024-03-02T03:10:08;92720.44;;;3.59;100.00
50093;BME280;35974;47.752;10.290;2024-03-02T03:12:35;92701.63;;;3.44;100.00
50093;BME280;35974;47.752;10.290;2024-03-02T03:15:03;92719.59;;;3.52;100.00
50093;BME280;35974;47.752;10.290;2024-03-02T03:17:41;92691.94;;;3.24;100.00
50093;BME280;35974;47.752;10.290;2024-03-02T03:20:08;92689.13;;;3.19;100.00
50093;BME280;35974;47.752;10.290;2024-03-02T03:22:38;92739.16;;;3.61;100.00
50093;BME280;35974;47.752;10.290;2024-03-02T03:25:05;92734.22;;;3.66;100.00
50093;BME280;35974;47.752;10.290;2024-03-02T03:27:33;92730.88;;;3.73;100.00
50093;BME280;35974;47.752;10.290;2024-03-02T03:30:00;92663.28;;;3.19;100.00
50093;BME280;35974;47.752;10.290;2024-03-02T03:32:28;92729.78;;;3.60;100.00
50093;BME280;35974;47.752;10.290;2024-03-02T03:34:55;92668.00;;;3.09;100.00
50093;BME280;35974;47.752;10.290;2024-03-02T03:37:21;92667.50;;;2.99;100.00
50093;BME280;35974;47.752;10.290;2024-03-02T03:39:48;92726.66;;;3.37;100.00
50093;BME280;35974;47.752;10.290;2024-03-02T03:42:17;92737.59;;;3.39;100.00
50093;BME280;35974;47.752;10.290;2024-03-02T03:44:44;92728.75;;;3.26;100.00
50093;BME280;35974;47.752;10.290;2024-03-02T03:47:10;92723.84;;;3.32;100.00
50093;BME280;35974;47.752;10.290;2024-03-02T03:49:37;92723.75;;;3.25;100.00
50093;BME280;35974;47.752;10.290;2024-03-02T03:52:16;92732.19;;;3.34;100.00
50093;BME280;35974;47.752;10.290;2024-03-02T03:54:42;92742.59;;;3.40;100.00
50093;BME280;35974;47.752;10.290;2024-03-02T03:57:09;92708.56;;;3.15;100.00
50093;BME280;35974;47.752;10.290;2024-03-02T03:59:36;92737.19;;;3.35;100.00
50093;BME280;35974;47.752;10.290;2024-03-02T04:02:08;92747.34;;;3.37;100.00
50093;BME280;35974;47.752;10.290;2024-03-02T04:04:35;92738.13;;;3.27;100.00
50093;BME280;35974;47.752;10.290;2024-03-02T04:07:02;92703.69;;;2.99;100.00
50093;BME280;35974;47.752;10.290;2024-03-02T04:09:30;92719.31;;;3.12;100.00
50093;BME280;35974;47.752;10.290;2024-03-02T04:11:57;92749.06;;;3.29;100.00
50093;BME280;35974;47.752;10.290;2024-03-02T04:14:23;92727.31;;;3.17;100.00
50093;BME280;35974;47.752;10.290;2024-03-02T04:16:50;92720.16;;;3.19;100.00
50093;BME280;35974;47.752;10.290;2024-03-02T04:19:16;92722.75;;;3.19;100.00
50093;BME280;35974;47.752;10.290;2024-03-02T04:21:43;92712.16;;;3.14;100.00
50093;BME280;35974;47.752;10.290;2024-03-02T04:24:10;92736.19;;;3.36;100.00
50093;BME280;35974;47.752;10.290;2024-03-02T04:26:38;92688.66;;;3.09;100.00
50093;BME280;35974;47.752;10.290;2024-03-02T04:29:04;92687.91;;;3.15;100.00
50093;BME280;35974;47.752;10.290;2024-03-02T04:31:31;92693.56;;;3.25;100.00
50093;BME280;35974;47.752;10.290;2024-03-02T04:33:58;92661.97;;;3.02;100.00
50093;BME280;35974;47.752;10.290;2024-03-02T04:36:33;92722.69;;;3.41;100.00
50093;BME280;35974;47.752;10.290;2024-03-02T04:39:00;92707.09;;;3.27;100.00
50093;BME280;35974;47.752;10.290;2024-03-02T04:41:26;92712.13;;;3.36;100.00
50093;BME280;35974;47.752;10.290;2024-03-02T04:43:54;92747.09;;;3.60;100.00
50093;BME280;35974;47.752;10.290;2024-03-02T04:46:20;92711.13;;;3.37;100.00
50093;BME280;35974;47.752;10.290;2024-03-02T04:48:47;92739.94;;;3.62;100.00
50093;BME280;35974;47.752;10.290;2024-03-02T04:51:15;92725.91;;;3.43;100.00
50093;BME280;35974;47.752;10.290;2024-03-02T04:53:41;92730.41;;;3.62;100.00
50093;BME280;35974;47.752;10.290;2024-03-02T04:56:08;92739.53;;;3.58;100.00
50093;BME280;35974;47.752;10.290;2024-03-02T04:58:53;92737.91;;;3.57;100.00
50093;BME280;35974;47.752;10.290;2024-03-02T05:01:20;92695.97;;;3.27;100.00
50093;BME280;35974;47.752;10.290;2024-03-02T05:03:46;92719.59;;;3.52;100.00
50093;BME280;35974;47.752;10.290;2024-03-02T05:06:13;92716.91;;;3.39;100.00
50093;BME280;35974;47.752;10.290;2024-03-02T05:08:39;92736.25;;;3.43;100.00
50093;BME280;35974;47.752;10.290;2024-03-02T05:11:06;92710.28;;;3.29;100.00
50093;BME280;35974;47.752;10.290;2024-03-02T05:13:51;92720.63;;;3.29;100.00
50093;BME280;35974;47.752;10.290;2024-03-02T05:16:18;92722.56;;;3.21;100.00
50093;BME280;35974;47.752;10.290;2024-03-02T05:18:49;92679.06;;;3.03;100.00
50093;BME280;35974;47.752;10.290;2024-03-02T05:21:16;92700.59;;;3.10;100.00
50093;BME280;35974;47.752;10.290;2024-03-02T05:23:42;92698.13;;;3.02;100.00
50093;BME280;35974;47.752;10.290;2024-03-02T05:26:09;92707.38;;;3.11;100.00
50093;BME280;35974;47.752;10.290;2024-03-02T05:28:39;92746.47;;;3.29;100.00
50093;BME280;35974;47.752;10.290;2024-03-02T05:31:05;92723.59;;;3.05;100.00
50093;BME280;35974;47.752;10.290;2024-03-02T05:33:33;92716.59;;;2.99;100.00
50093;BME280;35974;47.752;10.290;2024-03-02T05:36:03;92706.03;;;2.93;100.00
50093;BME280;35974;47.752;10.290;2024-03-02T05:38:29;92713.53;;;2.88;100.00
50093;BME280;35974;47.752;10.290;2024-03-02T05:40:56;92736.72;;;3.03;100.00
50093;BME280;35974;47.752;10.290;2024-03-02T05:43:22;92755.50;;;3.12;100.00
50093;BME280;35974;47.752;10.290;2024-03-02T05:45:49;92728.78;;;3.05;100.00
50093;BME280;35974;47.752;10.290;2024-03-02T05:48:15;92743.56;;;3.11;100.00
50093;BME280;35974;47.752;10.290;2024-03-02T05:50:42;92723.59;;;3.05;100.00
50093;BME280;35974;47.752;10.290;2024-03-02T05:53:08;92558.16;;;1.92;100.00
50093;BME280;35974;47.752;10.290;2024-03-02T05:55:35;92753.47;;;3.07;100.00
50093;BME280;35974;47.752;10.290;2024-03-02T05:58:02;92755.59;;;3.04;100.00
50093;BME280;35974;47.752;10.290;2024-03-02T06:00:47;92707.75;;;2.65;100.00
50093;BME280;35974;47.752;10.290;2024-03-02T06:03:14;92759.69;;;2.91;100.00
50093;BME280;35974;47.752;10.290;2024-03-02T06:05:40;92734.38;;;2.65;100.00
50093;BME280;35974;47.752;10.290;2024-03-02T06:08:07;92736.78;;;2.67;100.00
50093;BME280;35974;47.752;10.290;2024-03-02T06:10:33;92701.53;;;2.37;100.00
50093;BME280;35974;47.752;10.290;2024-03-02T06:13:00;92750.69;;;2.66;100.00
50093;BME280;35974;47.752;10.290;2024-03-02T06:15:27;92706.75;;;2.44;100.00
50093;BME280;35974;47.752;10.290;2024-03-02T06:17:53;92708.81;;;2.49;100.00
50093;BME280;35974;47.752;10.290;2024-03-02T06:20:20;92698.13;;;2.37;100.00
50093;BME280;35974;47.752;10.290;2024-03-02T06:22:46;92723.53;;;2.55;100.00
50093;BME280;35974;47.752;10.290;2024-03-02T06:25:13;92733.88;;;2.18;100.00
50093;BME280;35974;47.752;10.290;2024-03-02T06:27:41;92751.25;;;2.46;100.00
50093;BME280;35974;47.752;10.290;2024-03-02T06:30:08;92740.56;;;2.49;100.00
50093;BME280;35974;47.752;10.290;2024-03-02T06:32:35;92717.09;;;2.44;100.00
50093;BME280;35974;47.752;10.290;2024-03-02T06:35:02;92690.38;;;2.37;100.00
50093;BME280;35974;47.752;10.290;2024-03-02T06:37:31;92731.84;;;2.50;100.00
50093;BME280;35974;47.752;10.290;2024-03-02T06:39:58;92711.06;;;2.80;100.00
50093;BME280;35974;47.752;10.290;2024-03-02T06:42:24;92766.56;;;3.06;100.00
50093;BME280;35974;47.752;10.290;2024-03-02T06:44:56;92737.41;;;2.90;100.00
50093;BME280;35974;47.752;10.290;2024-03-02T06:47:23;92751.00;;;2.99;100.00
50093;BME280;35974;47.752;10.290;2024-03-02T06:49:56;92724.84;;;2.87;100.00
50093;BME280;35974;47.752;10.290;2024-03-02T06:52:24;92735.00;;;2.89;100.00
50093;BME280;35974;47.752;10.290;2024-03-02T06:54:52;92746.25;;;3.03;100.00
50093;BME280;35974;47.752;10.290;2024-03-02T06:57:22;92687.06;;;2.65;100.00
50093;BME280;35974;47.752;10.290;2024-03-02T06:59:48;92762.34;;;3.26;100.00
50093;BME280;35974;47.752;10.290;2024-03-02T07:02:17;92751.59;;;3.23;100.00
50093;BME280;35974;47.752;10.290;2024-03-02T07:04:44;92778.00;;;3.40;100.00
50093;BME280;35974;47.752;10.290;2024-03-02T07:07:11;92722.00;;;3.04;100.00
50093;BME280;35974;47.752;10.290;2024-03-02T07:09:38;92742.16;;;3.37;100.00
50093;BME280;35974;47.752;10.290;2024-03-02T07:12:05;92726.66;;;3.37;100.00
50093;BME280;35974;47.752;10.290;2024-03-02T07:14:31;92773.38;;;3.63;100.00
50093;BME280;35974;47.752;10.290;2024-03-02T07:17:16;92744.63;;;3.45;100.00
50093;BME280;35974;47.752;10.290;2024-03-02T07:19:43;92761.06;;;3.65;100.00
50093;BME280;35974;47.752;10.290;2024-03-02T07:22:11;92769.53;;;3.81;100.00
50093;BME280;35974;47.752;10.290;2024-03-02T07:24:42;92775.16;;;3.91;100.00
50093;BME280;35974;47.752;10.290;2024-03-02T07:27:11;92784.81;;;4.11;100.00
50093;BME280;35974;47.752;10.290;2024-03-02T07:29:39;92773.72;;;4.17;100.00
50093;BME280;35974;47.752;10.290;2024-03-02T07:32:06;92774.63;;;4.37;100.00
50093;BME280;35974;47.752;10.290;2024-03-02T07:34:34;92759.78;;;4.18;100.00
50093;BME280;35974;47.752;10.290;2024-03-02T07:37:00;92752.16;;;4.03;100.00
50093;BME280;35974;47.752;10.290;2024-03-02T07:39:27;92767.78;;;4.23;100.00
50093;BME280;35974;47.752;10.290;2024-03-02T07:41:55;92763.50;;;4.44;100.00
50093;BME280;35974;47.752;10.290;2024-03-02T07:44:21;92752.28;;;4.36;100.00
50093;BME280;35974;47.752;10.290;2024-03-02T07:46:49;92729.13;;;4.21;100.00
50093;BME280;35974;47.752;10.290;2024-03-02T07:49:16;92768.72;;;4.57;100.00
50093;BME280;35974;47.752;10.290;2024-03-02T07:51:43;92779.53;;;4.81;100.00
50093;BME280;35974;47.752;10.290;2024-03-02T07:54:10;92760.41;;;4.82;100.00
50093;BME280;35974;47.752;10.290;2024-03-02T07:56:36;92750.03;;;4.75;100.00
50093;BME280;35974;47.752;10.290;2024-03-02T07:59:04;92775.19;;;5.01;100.00
50093;BME280;35974;47.752;10.290;2024-03-02T08:01:31;92766.66;;;5.07;100.00
50093;BME280;35974;47.752;10.290;2024-03-02T08:03:59;92747.69;;;5.07;100.00
50093;BME280;35974;47.752;10.290;2024-03-02T08:06:27;92759.66;;;5.28;100.00
50093;BME280;35974;47.752;10.290;2024-03-02T08:08:55;92762.09;;;5.36;100.00
50093;BME280;35974;47.752;10.290;2024-03-02T08:11:22;92753.28;;;5.37;100.00
50093;BME280;35974;47.752;10.290;2024-03-02T08:13:50;92772.84;;;5.73;100.00
50093;BME280;35974;47.752;10.290;2024-03-02T08:16:16;92760.88;;;5.72;100.00
50093;BME280;35974;47.752;10.290;2024-03-02T08:18:49;92770.03;;;6.15;100.00
50093;BME280;35974;47.752;10.290;2024-03-02T08:21:17;92746.06;;;5.93;100.00
50093;BME280;35974;47.752;10.290;2024-03-02T08:23:44;92731.31;;;5.86;100.00
50093;BME280;35974;47.752;10.290;2024-03-02T08:26:11;92725.28;;;5.93;100.00
50093;BME280;35974;47.752;10.290;2024-03-02T08:28:40;92752.03;;;6.20;100.00
50093;BME280;35974;47.752;10.290;2024-03-02T08:31:07;92753.59;;;6.28;100.00
50093;BME280;35974;47.752;10.290;2024-03-02T08:33:37;92728.06;;;6.18;100.00
50093;BME280;35974;47.752;10.290;2024-03-02T08:36:05;92747.78;;;6.39;100.00
50093;BME280;35974;47.752;10.290;2024-03-02T08:38:32;92743.16;;;6.41;100.00
50093;BME280;35974;47.752;10.290;2024-03-02T08:40:59;92740.34;;;6.49;100.00
50093;BME280;35974;47.752;10.290;2024-03-02T08:43:26;92757.78;;;6.87;100.00
50093;BME280;35974;47.752;10.290;2024-03-02T08:45:53;92769.25;;;7.05;100.00
50093;BME280;35974;47.752;10.290;2024-03-02T08:48:20;92759.69;;;6.99;100.00
50093;BME280;35974;47.752;10.290;2024-03-02T08:50:47;92765.66;;;7.06;100.00
50093;BME280;35974;47.752;10.290;2024-03-02T08:53:14;92703.22;;;6.74;100.00
50093;BME280;35974;47.752;10.290;2024-03-02T08:55:47;92722.47;;;6.98;100.00
50093;BME280;35974;47.752;10.290;2024-03-02T08:58:14;92755.84;;;7.40;100.00
50093;BME280;35974;47.752;10.290;2024-03-02T09:00:40;92731.50;;;7.27;100.00
50093;BME280;35974;47.752;10.290;2024-03-02T09:03:07;92675.13;;;6.89;100.00
50093;BME280;35974;47.752;10.290;2024-03-02T09:05:34;92734.59;;;7.43;100.00
50093;BME280;35974;47.752;10.290;2024-03-02T09:08:01;92758.59;;;7.45;100.00
50093;BME280;35974;47.752;10.290;2024-03-02T09:10:27;92720.56;;;7.44;100.00
50093;BME280;35974;47.752;10.290;2024-03-02T09:12:54;92696.13;;;7.45;100.00
50093;BME280;35974;47.752;10.290;2024-03-02T09:15:20;92760.59;;;7.93;100.00
50093;BME280;35974;47.752;10.290;2024-03-02T09:17:48;92737.28;;;7.55;100.00
50093;BME280;35974;47.752;10.290;2024-03-02T09:20:17;92738.41;;;7.65;100.00
50093;BME280;35974;47.752;10.290;2024-03-02T09:22:43;92750.19;;;7.93;100.00
50093;BME280;35974;47.752;10.290;2024-03-02T09:25:11;92719.50;;;7.95;100.00
50093;BME280;35974;47.752;10.290;2024-03-02T09:27:43;92710.91;;;7.95;100.00
50093;BME280;35974;47.752;10.290;2024-03-02T09:30:12;92753.97;;;8.34;100.00
50093;BME280;35974;47.752;10.290;2024-03-02T09:32:42;92666.69;;;7.88;100.00
50093;BME280;35974;47.752;10.290;2024-03-02T09:35:15;92738.34;;;8.16;100.00
50093;BME280;35974;47.752;10.290;2024-03-02T09:37:56;92730.81;;;8.45;100.00
50093;BME280;35974;47.752;10.290;2024-03-02T09:40:23;92710.25;;;8.55;100.00
50093;BME280;35974;47.752;10.290;2024-03-02T09:42:52;92570.91;;;7.72;100.00
50093;BME280;35974;47.752;10.290;2024-03-02T09:45:24;92626.13;;;8.29;100.00
50093;BME280;35974;47.752;10.290;2024-03-02T09:47:58;92664.59;;;8.64;100.00
50093;BME280;35974;47.752;10.290;2024-03-02T09:50:26;92703.28;;;8.97;100.00
50093;BME280;35974;47.752;10.290;2024-03-02T09:52:53;92713.69;;;9.28;100.00
50093;BME280;35974;47.752;10.290;2024-03-02T09:55:21;92606.66;;;8.62;100.00
50093;BME280;35974;47.752;10.290;2024-03-02T09:57:48;92589.41;;;8.61;100.00
50093;BME280;35974;47.752;10.290;2024-03-02T10:00:18;92696.66;;;9.37;100.00
50093;BME280;35974;47.752;10.290;2024-03-02T10:02:46;92672.38;;;9.25;100.00
50093;BME280;35974;47.752;10.290;2024-03-02T10:05:27;92699.88;;;9.39;100.00
50093;BME280;35974;47.752;10.290;2024-03-02T10:08:02;92703.16;;;9.46;100.00
50093;BME280;35974;47.752;10.290;2024-03-02T10:10:39;92719.88;;;9.69;100.00
50093;BME280;35974;47.752;10.290;2024-03-02T10:13:07;92714.63;;;9.93;100.00
50093;BME280;35974;47.752;10.290;2024-03-02T10:15:35;92698.97;;;9.93;100.00
50093;BME280;35974;47.752;10.290;2024-03-02T10:18:12;92682.28;;;9.82;100.00
50093;BME280;35974;47.752;10.290;2024-03-02T10:20:41;92620.41;;;9.35;100.00
50093;BME280;35974;47.752;10.290;2024-03-02T10:23:15;92661.38;;;9.82;100.00
50093;BME280;35974;47.752;10.290;2024-03-02T10:25:44;92638.00;;;9.75;100.00
50093;BME280;35974;47.752;10.290;2024-03-02T10:28:23;92683.50;;;10.03;100.00
50093;BME280;35974;47.752;10.290;2024-03-02T10:30:52;92689.16;;;10.23;100.00
50093;BME280;35974;47.752;10.290;2024-03-02T10:33:29;92608.81;;;9.78;100.00
50093;BME280;35974;47.752;10.290;2024-03-02T10:36:14;92659.84;;;10.21;100.00
50093;BME280;35974;47.752;10.290;2024-03-02T10:38:41;92641.44;;;10.16;100.00
50093;BME280;35974;47.752;10.290;2024-03-02T10:41:09;92616.03;;;10.00;100.00
50093;BME280;35974;47.752;10.290;2024-03-02T10:43:39;92674.31;;;10.65;100.00
50093;BME280;35974;47.752;10.290;2024-03-02T10:46:07;92628.91;;;10.42;100.00
50093;BME280;35974;47.752;10.290;2024-03-02T10:48:39;92673.00;;;10.79;100.00
50093;BME280;35974;47.752;10.290;2024-03-02T10:51:09;92606.53;;;10.34;100.00
50093;BME280;35974;47.752;10.290;2024-03-02T10:53:52;92624.78;;;10.46;100.00
50093;BME280;35974;47.752;10.290;2024-03-02T10:56:27;92639.97;;;11.07;100.00
50093;BME280;35974;47.752;10.290;2024-03-02T11:01:50;92626.63;;;10.91;100.00
50093;BME280;35974;47.752;10.290;2024-03-02T11:04:21;92647.25;;;11.05;100.00
50093;BME280;35974;47.752;10.290;2024-03-02T11:06:49;92599.00;;;10.84;100.00
50093;BME280;35974;47.752;10.290;2024-03-02T11:09:26;92625.84;;;11.08;100.00
50093;BME280;35974;47.752;10.290;2024-03-02T11:14:26;92559.69;;;10.95;100.00
50093;BME280;35974;47.752;10.290;2024-03-02T11:16:53;92597.50;;;11.05;100.00
50093;BME280;35974;47.752;10.290;2024-03-02T11:19:20;92613.63;;;11.30;100.00
50093;BME280;35974;47.752;10.290;2024-03-02T11:21:48;92597.44;;;11.33;100.00
50093;BME280;35974;47.752;10.290;2024-03-02T11:26:47;92570.91;;;11.47;100.00
50093;BME280;35974;47.752;10.290;2024-03-02T11:32:03;92586.56;;;11.81;100.00
50093;BME280;35974;47.752;10.290;2024-03-02T11:34:34;92578.16;;;11.79;100.00
50093;BME280;35974;47.752;10.290;2024-03-02T11:37:02;92577.69;;;11.65;100.00
50093;BME280;35974;47.752;10.290;2024-03-02T11:39:29;92582.78;;;11.71;100.00
50093;BME280;35974;47.752;10.290;2024-03-02T11:41:57;92511.38;;;11.20;100.00
50093;BME280;35974;47.752;10.290;2024-03-02T11:44:26;92556.75;;;11.65;100.00
50093;BME280;35974;47.752;10.290;2024-03-02T11:47:00;92552.66;;;11.52;100.00
50093;BME280;35974;47.752;10.290;2024-03-02T11:49:37;92564.34;;;11.66;100.00
50093;BME280;35974;47.752;10.290;2024-03-02T11:52:06;92536.44;;;11.55;100.00
50093;BME280;35974;47.752;10.290;2024-03-02T11:54:37;92557.75;;;11.42;100.00
50093;BME280;35974;47.752;10.290;2024-03-02T11:57:07;92543.28;;;11.56;100.00
50093;BME280;35974;47.752;10.290;2024-03-02T11:59:34;92498.47;;;11.35;100.00
50093;BME280;35974;47.752;10.290;2024-03-02T12:02:01;92511.22;;;11.49;100.00
50093;BME280;35974;47.752;10.290;2024-03-02T12:04:29;92521.06;;;11.59;100.00
50093;BME280;35974;47.752;10.290;2024-03-02T12:06:59;92552.53;;;11.86;100.00
50093;BME280;35974;47.752;10.290;2024-03-02T12:09:29;92540.34;;;11.92;100.00
50093;BME280;35974;47.752;10.290;2024-03-02T12:12:09;92424.19;;;11.20;100.00
50093;BME280;35974;47.752;10.290;2024-03-02T12:14:38;92499.91;;;11.65;100.00
50093;BME280;35974;47.752;10.290;2024-03-02T12:17:05;92481.50;;;11.60;100.00
50093;BME280;35974;47.752;10.290;2024-03-02T12:19:33;92390.41;;;11.18;100.00
50093;BME280;35974;47.752;10.290;2024-03-02T12:22:00;92417.47;;;11.29;100.00
50093;BME280;35974;47.752;10.290;2024-03-02T12:24:29;92410.59;;;11.45;100.00
50093;BME280;35974;47.752;10.290;2024-03-02T12:26:57;92500.38;;;12.06;100.00
50093;BME280;35974;47.752;10.290;2024-03-02T12:29:26;92489.41;;;12.09;100.00
50093;BME280;35974;47.752;10.290;2024-03-02T12:31:53;92396.03;;;11.54;100.00
50093;BME280;35974;47.752;10.290;2024-03-02T12:34:21;92385.47;;;11.44;100.00
50093;BME280;35974;47.752;10.290;2024-03-02T12:36:48;92452.72;;;12.09;100.00
50093;BME280;35974;47.752;10.290;2024-03-02T12:39:19;92488.03;;;12.29;100.00
50093;BME280;35974;47.752;10.290;2024-03-02T12:41:46;92405.78;;;11.86;100.00
50093;BME280;35974;47.752;10.290;2024-03-02T12:44:13;92382.25;;;11.91;100.00
50093;BME280;35974;47.752;10.290;2024-03-02T12:46:40;92308.66;;;11.38;100.00
50093;BME280;35974;47.752;10.290;2024-03-02T12:49:14;92409.78;;;12.16;100.00
50093;BME280;35974;47.752;10.290;2024-03-02T12:51:45;92454.09;;;12.44;100.00
50093;BME280;35974;47.752;10.290;2024-03-02T12:54:18;92370.09;;;11.80;100.00
50093;BME280;35974;47.752;10.290;2024-03-02T12:56:45;92348.75;;;11.93;100.00
50093;BME280;35974;47.752;10.290;2024-03-02T12:59:20;92449.97;;;12.59;100.00
50093;BME280;35974;47.752;10.290;2024-03-02T13:01:58;92343.16;;;12.17;100.00
50093;BME280;35974;47.752;10.290;2024-03-02T13:04:33;92436.59;;;12.98;100.00
50093;BME280;35974;47.752;10.290;2024-03-02T13:07:00;92406.69;;;12.99;100.00
50093;BME280;35974;47.752;10.290;2024-03-02T13:09:34;92404.06;;;13.04;100.00
50093;BME280;35974;47.752;10.290;2024-03-02T13:12:01;92375.19;;;12.99;100.00